createdAt,value
2022-08-16T17:11:37.350Z,99514.30
2022-08-16T17:14:17.393Z,99529.37
2022-08-16T17:16:48.679Z,99525.25
2022-08-16T17:19:24.088Z,99519.30
2022-08-16T17:21:58.868Z,99523.20
2022-08-16T17:24:39.526Z,99519.09
2022-08-16T17:27:11.220Z,99522.04
2022-08-16T17:29:46.267Z,99514.38
2022-08-16T17:32:47.018Z,99518.28
2022-08-16T17:34:55.348Z,99520.37
2022-08-16T17:37:42.342Z,99517.20
2022-08-16T17:40:36.057Z,99521.95
2022-08-16T17:42:47.850Z,99516.97
2022-08-16T17:45:18.173Z,99517.58
2022-08-16T17:47:51.733Z,99517.88
2022-08-16T17:50:26.578Z,99518.98
2022-08-16T17:53:01.095Z,99520.12
2022-08-16T17:55:37.217Z,99514.16
2022-08-16T17:58:22.781Z,99518.77
2022-08-16T18:00:52.367Z,99512.02
2022-08-16T18:04:02.722Z,99516.97
2022-08-16T18:06:04.063Z,99520.84
2022-08-16T18:08:37.909Z,99527.40
2022-08-16T18:11:13.547Z,99527.59
2022-08-16T18:13:47.279Z,99531.73
2022-08-16T18:16:20.816Z,99524.98
2022-08-16T18:18:53.949Z,99524.46
2022-08-16T18:21:44.564Z,99536.48
2022-08-16T18:24:19.118Z,99533.19
2022-08-16T18:26:52.257Z,99531.70
2022-08-16T18:29:25.603Z,99532.11
2022-08-16T18:31:58.833Z,99523.73
2022-08-16T18:34:32.736Z,99521.25
2022-08-16T18:37:07.402Z,99529.55
2022-08-16T18:39:42.263Z,99519.93
2022-08-16T18:42:17.079Z,99518.37
2022-08-16T18:44:50.329Z,99518.45
2022-08-16T18:47:26.011Z,99517.75
2022-08-16T18:49:59.370Z,99514.45
2022-08-16T18:52:33.795Z,99512.89
2022-08-16T18:55:14.832Z,99506.15
2022-08-16T18:57:43.294Z,99505.52
2022-08-16T19:00:19.831Z,99513.78
2022-08-16T19:02:58.917Z,99510.48
2022-08-16T19:05:34.192Z,99509.94
2022-08-16T19:08:08.391Z,99509.31
2022-08-16T19:10:43.147Z,99506.72
2022-08-16T19:13:21.465Z,99506.00
2022-08-16T19:15:56.798Z,99502.66
2022-08-16T19:18:36.609Z,99501.02
2022-08-16T19:21:14.667Z,99503.91
2022-08-16T19:23:54.957Z,99501.66
2022-08-16T19:26:29.508Z,99495.81
2022-08-16T19:29:08.415Z,99497.13
2022-08-16T19:31:41.134Z,99498.31
2022-08-16T19:34:18.925Z,99499.63
2022-08-16T19:36:54.382Z,99501.82
2022-08-16T19:39:32.423Z,99499.36
2022-08-16T19:42:05.109Z,99498.67
2022-08-16T19:44:38.233Z,99496.25
2022-08-16T19:47:14.650Z,99504.55
2022-08-16T19:49:48.849Z,99504.84
2022-08-16T19:52:24.559Z,99502.41
2022-08-16T19:55:02.441Z,99497.92
2022-08-16T19:57:39.254Z,99505.94
2022-08-16T20:00:19.112Z,99505.00
2022-08-16T20:02:54.380Z,99501.40
2022-08-16T20:05:32.878Z,99497.80
2022-08-16T20:08:07.612Z,99504.84
2022-08-16T20:10:43.762Z,99502.90
2022-08-16T20:13:19.368Z,99501.11
2022-08-16T20:15:53.327Z,99498.64
2022-08-16T20:18:26.632Z,99499.66
2022-08-16T20:21:00.362Z,99463.36
2022-08-16T20:23:33.474Z,99494.77
2022-08-16T20:26:08.869Z,99500.26
2022-08-16T20:28:54.130Z,99487.96
2022-08-16T20:31:18.312Z,99497.99
2022-08-16T20:33:52.949Z,99500.74
2022-08-16T20:36:26.508Z,99501.02
2022-08-16T20:39:03.088Z,99504.78
2022-08-16T20:41:38.359Z,99504.13
2022-08-16T20:44:13.752Z,99506.09
2022-08-16T20:46:49.084Z,99500.95
2022-08-16T20:49:22.150Z,99505.95
2022-08-16T20:51:59.313Z,99499.28
2022-08-16T20:54:31.852Z,99506.89
2022-08-16T20:57:05.674Z,99507.56
2022-08-16T20:59:40.010Z,99508.78
2022-08-16T21:02:15.276Z,99508.11
2022-08-16T21:04:48.257Z,99513.05
2022-08-16T21:07:23.176Z,99517.90
2022-08-16T21:09:56.249Z,99509.70
2022-08-16T21:12:33.794Z,99516.86
2022-08-16T21:15:12.423Z,99507.89
2022-08-16T21:17:45.956Z,99508.78
2022-08-16T21:20:19.546Z,99513.19
2022-08-16T21:22:57.683Z,99513.37
2022-08-16T21:25:34.843Z,99504.56
2022-08-16T21:28:38.820Z,99508.23
2022-08-16T21:30:47.084Z,99490.78
2022-08-16T21:33:21.825Z,99495.45
2022-08-16T21:35:55.451Z,99504.26
2022-08-16T21:38:30.755Z,99504.38
2022-08-16T21:41:06.032Z,99509.03
2022-08-16T21:43:39.091Z,99513.44
2022-08-16T21:46:12.314Z,99511.70
2022-08-16T21:48:46.732Z,99507.37
2022-08-16T21:51:19.905Z,99508.51
2022-08-16T21:53:53.206Z,99512.10
2022-08-16T21:56:26.305Z,99509.62
2022-08-16T21:58:59.611Z,99500.16
2022-08-16T22:01:34.327Z,99496.86
2022-08-16T22:04:36.639Z,99496.25
2022-08-16T22:06:44.648Z,99486.30
2022-08-16T22:09:17.942Z,99486.92
2022-08-16T22:11:51.442Z,99491.56
2022-08-16T22:14:24.802Z,99489.92
2022-08-16T22:16:57.896Z,99482.75
2022-08-16T22:19:31.029Z,99486.10
2022-08-16T22:22:04.240Z,99493.17
2022-08-16T22:24:37.442Z,99489.69
2022-08-16T22:27:10.620Z,99490.95
2022-08-16T22:29:47.066Z,99487.77
2022-08-16T22:32:20.168Z,99495.89
2022-08-16T22:34:53.444Z,99498.55
2022-08-16T22:37:28.291Z,99493.16
2022-08-16T22:40:01.515Z,99495.89
2022-08-16T22:42:34.826Z,99502.92
2022-08-16T22:45:09.375Z,99504.66
2022-08-16T22:47:42.591Z,99509.20
2022-08-16T22:50:16.487Z,99501.31
2022-08-16T22:52:56.571Z,99507.69
2022-08-16T22:55:27.756Z,99504.24
2022-08-16T22:58:01.047Z,99502.56
2022-08-16T23:00:35.510Z,99500.95
2022-08-16T23:03:11.325Z,99501.15
2022-08-16T23:05:50.427Z,99494.18
2022-08-16T23:08:32.259Z,99500.62
2022-08-16T23:11:01.822Z,99503.34
2022-08-16T23:13:35.024Z,99495.36
2022-08-16T23:16:11.425Z,99503.41
2022-08-16T23:18:45.124Z,99505.18
2022-08-16T23:21:19.091Z,99506.92
2022-08-16T23:23:52.945Z,99500.84
2022-08-16T23:26:45.141Z,99494.73
2022-08-16T23:29:00.942Z,99504.67
2022-08-16T23:31:34.638Z,99504.83
2022-08-16T23:34:07.646Z,99507.55
2022-08-16T23:36:40.788Z,99501.53
2022-08-16T23:39:13.951Z,99507.02
2022-08-16T23:41:47.093Z,99505.33
2022-08-16T23:44:55.019Z,99514.27
2022-08-16T23:50:32.872Z,99504.35
2022-08-16T23:53:10.249Z,99515.66
2022-08-16T23:55:46.392Z,99516.55
2022-08-16T23:58:22.115Z,99520.22
